sensor_id;sensor_type;location;lat;lon;timestamp;temperature;humidity
23755;DHT22;12057;52.042;6.830;2023-11-21T00:04:29;12.80;99.90
23755;DHT22;12057;52.042;6.830;2023-11-21T00:09:30;12.80;99.90
23755;DHT22;12057;52.042;6.830;2023-11-21T00:14:32;12.90;99.90
23755;DHT22;12057;52.042;6.830;2023-11-21T00:19:33;12.90;99.90
23755;DHT22;12057;52.042;6.830;2023-11-21T00:24:38;13.00;99.90
23755;DHT22;12057;52.042;6.830;2023-11-21T00:29:39;13.00;99.90
23755;DHT22;12057;52.042;6.830;2023-11-21T00:34:39;13.00;99.90
23755;DHT22;12057;52.042;6.830;2023-11-21T00:39:40;13.10;99.90
23755;DHT22;12057;52.042;6.830;2023-11-21T00:44:41;13.20;99.90
23755;DHT22;12057;52.042;6.830;2023-11-21T00:49:42;13.20;99.90
23755;DHT22;12057;52.042;6.830;2023-11-21T00:54:43;13.20;99.90
23755;DHT22;12057;52.042;6.830;2023-11-21T00:59:45;13.20;99.90
23755;DHT22;12057;52.042;6.830;2023-11-21T01:04:46;13.30;99.90
23755;DHT22;12057;52.042;6.830;2023-11-21T01:09:48;13.30;99.90
23755;DHT22;12057;52.042;6.830;2023-11-21T01:14:49;13.30;99.90
23755;DHT22;12057;52.042;6.830;2023-11-21T01:19:53;13.30;99.90
23755;DHT22;12057;52.042;6.830;2023-11-21T01:24:54;13.30;99.90
23755;DHT22;12057;52.042;6.830;2023-11-21T01:29:55;13.30;99.90
23755;DHT22;12057;52.042;6.830;2023-11-21T01:34:55;13.30;99.90
23755;DHT22;12057;52.042;6.830;2023-11-21T01:39:56;13.30;99.90
23755;DHT22;12057;52.042;6.830;2023-11-21T01:44:57;13.30;99.90
23755;DHT22;12057;52.042;6.830;2023-11-21T01:49:58;13.30;99.90
23755;DHT22;12057;52.042;6.830;2023-11-21T01:54:59;13.30;99.90
23755;DHT22;12057;52.042;6.830;2023-11-21T02:00:02;13.30;99.90
23755;DHT22;12057;52.042;6.830;2023-11-21T02:05:17;13.30;99.90
23755;DHT22;12057;52.042;6.830;2023-11-21T02:10:22;13.30;99.90
23755;DHT22;12057;52.042;6.830;2023-11-21T02:15:25;13.30;99.90
23755;DHT22;12057;52.042;6.830;2023-11-21T02:20:29;13.20;99.90
23755;DHT22;12057;52.042;6.830;2023-11-21T02:25:31;13.10;99.90
23755;DHT22;12057;52.042;6.830;2023-11-21T02:30:32;13.00;99.90
23755;DHT22;12057;52.042;6.830;2023-11-21T02:35:33;13.00;99.90
23755;DHT22;12057;52.042;6.830;2023-11-21T02:40:35;13.00;99.90
23755;DHT22;12057;52.042;6.830;2023-11-21T02:45:36;13.00;99.90
23755;DHT22;12057;52.042;6.830;2023-11-21T02:50:37;13.00;99.90
23755;DHT22;12057;52.042;6.830;2023-11-21T02:55:38;13.00;99.90
23755;DHT22;12057;52.042;6.830;2023-11-21T03:00:38;13.00;99.90
23755;DHT22;12057;52.042;6.830;2023-11-21T03:05:42;12.90;99.90
23755;DHT22;12057;52.042;6.830;2023-11-21T03:10:46;12.90;99.90
23755;DHT22;12057;52.042;6.830;2023-11-21T03:15:47;12.90;99.90
23755;DHT22;12057;52.042;6.830;2023-11-21T03:20:48;12.90;99.90
23755;DHT22;12057;52.042;6.830;2023-11-21T03:25:48;12.90;99.90
23755;DHT22;12057;52.042;6.830;2023-11-21T03:30:49;12.90;99.90
23755;DHT22;12057;52.042;6.830;2023-11-21T03:35:50;12.80;99.90
23755;DHT22;12057;52.042;6.830;2023-11-21T03:40:51;12.80;99.90
23755;DHT22;12057;52.042;6.830;2023-11-21T03:45:52;12.90;99.90
23755;DHT22;12057;52.042;6.830;2023-11-21T03:50:52;12.80;99.90
23755;DHT22;12057;52.042;6.830;2023-11-21T03:55:53;12.80;99.90
23755;DHT22;12057;52.042;6.830;2023-11-21T04:00:54;12.80;99.90
23755;DHT22;12057;52.042;6.830;2023-11-21T04:05:55;12.80;99.90
23755;DHT22;12057;52.042;6.830;2023-11-21T04:10:55;12.70;99.90
23755;DHT22;12057;52.042;6.830;2023-11-21T04:15:56;12.80;99.90
23755;DHT22;12057;52.042;6.830;2023-11-21T04:20:57;12.80;99.90
23755;DHT22;12057;52.042;6.830;2023-11-21T04:26:00;12.70;99.90
23755;DHT22;12057;52.042;6.830;2023-11-21T04:31:02;12.70;99.90
23755;DHT22;12057;52.042;6.830;2023-11-21T04:36:03;12.80;99.90
23755;DHT22;12057;52.042;6.830;2023-11-21T04:41:04;12.70;99.90
23755;DHT22;12057;52.042;6.830;2023-11-21T04:46:05;12.70;99.90
23755;DHT22;12057;52.042;6.830;2023-11-21T04:51:07;12.80;99.90
23755;DHT22;12057;52.042;6.830;2023-11-21T04:56:08;12.80;99.90
23755;DHT22;12057;52.042;6.830;2023-11-21T05:01:08;12.90;99.90
23755;DHT22;12057;52.042;6.830;2023-11-21T05:06:10;12.90;99.90
23755;DHT22;12057;52.042;6.830;2023-11-21T05:11:11;12.90;99.90
23755;DHT22;12057;52.042;6.830;2023-11-21T05:16:11;12.80;99.90
23755;DHT22;12057;52.042;6.830;2023-11-21T05:21:13;12.80;99.90
23755;DHT22;12057;52.042;6.830;2023-11-21T05:26:13;12.90;99.90
23755;DHT22;12057;52.042;6.830;2023-11-21T05:31:14;12.90;99.90
23755;DHT22;12057;52.042;6.830;2023-11-21T05:36:15;13.00;99.90
23755;DHT22;12057;52.042;6.830;2023-11-21T05:41:16;13.00;99.90
23755;DHT22;12057;52.042;6.830;2023-11-21T05:46:17;12.90;99.90
23755;DHT22;12057;52.042;6.830;2023-11-21T05:51:18;13.00;99.90
23755;DHT22;12057;52.042;6.830;2023-11-21T05:56:19;12.90;99.90
23755;DHT22;12057;52.042;6.830;2023-11-21T06:01:20;12.90;99.90
23755;DHT22;12057;52.042;6.830;2023-11-21T06:06:21;13.00;99.90
23755;DHT22;12057;52.042;6.830;2023-11-21T06:11:25;13.00;99.90
23755;DHT22;12057;52.042;6.830;2023-11-21T06:16:25;13.00;99.90
23755;DHT22;12057;52.042;6.830;2023-11-21T06:21:28;13.00;99.90
23755;DHT22;12057;52.042;6.830;2023-11-21T06:26:29;13.00;99.90
23755;DHT22;12057;52.042;6.830;2023-11-21T06:31:30;13.00;99.90
23755;DHT22;12057;52.042;6.830;2023-11-21T06:36:33;13.00;99.90
23755;DHT22;12057;52.042;6.830;2023-11-21T06:41:34;13.10;99.90
23755;DHT22;12057;52.042;6.830;2023-11-21T06:46:35;13.00;99.90
23755;DHT22;12057;52.042;6.830;2023-11-21T06:51:35;13.00;99.90
23755;DHT22;12057;52.042;6.830;2023-11-21T06:56:36;13.00;99.90
23755;DHT22;12057;52.042;6.830;2023-11-21T07:01:39;13.00;99.90
23755;DHT22;12057;52.042;6.830;2023-11-21T07:06:42;13.00;99.90
23755;DHT22;12057;52.042;6.830;2023-11-21T07:11:43;13.00;99.90
23755;DHT22;12057;52.042;6.830;2023-11-21T07:16:44;13.00;99.90
23755;DHT22;12057;52.042;6.830;2023-11-21T07:21:45;13.00;99.90
23755;DHT22;12057;52.042;6.830;2023-11-21T07:26:46;13.10;99.90
23755;DHT22;12057;52.042;6.830;2023-11-21T07:31:48;13.00;99.90
23755;DHT22;12057;52.042;6.830;2023-11-21T07:36:50;13.00;99.90
23755;DHT22;12057;52.042;6.830;2023-11-21T07:41:51;13.00;99.90
23755;DHT22;12057;52.042;6.830;2023-11-21T07:46:52;13.10;99.90
23755;DHT22;12057;52.042;6.830;2023-11-21T07:51:52;13.10;99.90
23755;DHT22;12057;52.042;6.830;2023-11-21T07:56:53;13.10;99.90
23755;DHT22;12057;52.042;6.830;2023-11-21T08:01:54;13.20;99.90
23755;DHT22;12057;52.042;6.830;2023-11-21T08:06:55;13.20;99.90
23755;DHT22;12057;52.042;6.830;2023-11-21T08:11:56;13.20;99.90
23755;DHT22;12057;52.042;6.830;2023-11-21T08:16:57;13.30;99.90
23755;DHT22;12057;52.042;6.830;2023-11-21T08:21:58;13.30;99.90
23755;DHT22;12057;52.042;6.830;2023-11-21T08:26:59;13.30;99.90
23755;DHT22;12057;52.042;6.830;2023-11-21T08:32:00;13.40;99.90
23755;DHT22;12057;52.042;6.830;2023-11-21T08:37:01;13.50;99.90
23755;DHT22;12057;52.042;6.830;2023-11-21T08:42:01;13.40;99.90
23755;DHT22;12057;52.042;6.830;2023-11-21T08:47:03;13.50;99.90
23755;DHT22;12057;52.042;6.830;2023-11-21T08:52:05;13.50;99.90
23755;DHT22;12057;52.042;6.830;2023-11-21T08:57:07;13.60;99.90
23755;DHT22;12057;52.042;6.830;2023-11-21T09:02:07;13.60;99.90
23755;DHT22;12057;52.042;6.830;2023-11-21T09:07:08;13.60;99.90
23755;DHT22;12057;52.042;6.830;2023-11-21T09:12:09;13.70;99.90
23755;DHT22;12057;52.042;6.830;2023-11-21T09:17:13;13.70;99.90
23755;DHT22;12057;52.042;6.830;2023-11-21T09:22:14;13.70;99.90
23755;DHT22;12057;52.042;6.830;2023-11-21T09:27:15;13.80;99.90
23755;DHT22;12057;52.042;6.830;2023-11-21T09:32:17;13.90;99.90
23755;DHT22;12057;52.042;6.830;2023-11-21T09:37:19;13.90;99.90
23755;DHT22;12057;52.042;6.830;2023-11-21T09:42:55;13.90;99.90
23755;DHT22;12057;52.042;6.830;2023-11-21T09:48:00;13.90;99.90
23755;DHT22;12057;52.042;6.830;2023-11-21T09:58:11;13.90;99.90
23755;DHT22;12057;52.042;6.830;2023-11-21T10:03:13;13.90;99.90
23755;DHT22;12057;52.042;6.830;2023-11-21T10:08:14;14.00;99.90
23755;DHT22;12057;52.042;6.830;2023-11-21T10:13:15;13.90;99.90
23755;DHT22;12057;52.042;6.830;2023-11-21T10:18:18;13.90;99.90
23755;DHT22;12057;52.042;6.830;2023-11-21T10:23:20;13.90;99.90
23755;DHT22;12057;52.042;6.830;2023-11-21T10:28:22;13.80;99.90
23755;DHT22;12057;52.042;6.830;2023-11-21T10:33:29;14.00;99.90
23755;DHT22;12057;52.042;6.830;2023-11-21T10:38:35;14.00;99.90
23755;DHT22;12057;52.042;6.830;2023-11-21T10:43:43;13.90;99.90
23755;DHT22;12057;52.042;6.830;2023-11-21T10:48:44;13.80;99.90
23755;DHT22;12057;52.042;6.830;2023-11-21T10:53:45;14.00;99.90
23755;DHT22;12057;52.042;6.830;2023-11-21T10:58:46;14.10;99.90
23755;DHT22;12057;52.042;6.830;2023-11-21T11:03:48;14.20;99.90
23755;DHT22;12057;52.042;6.830;2023-11-21T11:08:50;14.10;99.90
23755;DHT22;12057;52.042;6.830;2023-11-21T11:13:51;14.00;99.90
23755;DHT22;12057;52.042;6.830;2023-11-21T11:18:53;13.80;99.90
23755;DHT22;12057;52.042;6.830;2023-11-21T11:24:50;13.80;99.90
23755;DHT22;12057;52.042;6.830;2023-11-21T11:30:09;14.10;99.90
23755;DHT22;12057;52.042;6.830;2023-11-21T11:35:41;14.30;99.90
23755;DHT22;12057;52.042;6.830;2023-11-21T11:40:51;14.30;99.90
23755;DHT22;12057;52.042;6.830;2023-11-21T11:45:56;14.10;99.90
23755;DHT22;12057;52.042;6.830;2023-11-21T11:51:03;13.90;99.90
23755;DHT22;12057;52.042;6.830;2023-11-21T11:56:33;14.10;99.90
23755;DHT22;12057;52.042;6.830;2023-11-21T12:01:36;13.70;99.90
23755;DHT22;12057;52.042;6.830;2023-11-21T12:06:37;13.70;99.90
23755;DHT22;12057;52.042;6.830;2023-11-21T12:11:38;13.80;99.90
23755;DHT22;12057;52.042;6.830;2023-11-21T12:16:39;14.10;99.90
23755;DHT22;12057;52.042;6.830;2023-11-21T12:21:40;14.20;99.90
23755;DHT22;12057;52.042;6.830;2023-11-21T12:26:42;14.20;99.90
23755;DHT22;12057;52.042;6.830;2023-11-21T12:31:43;13.90;99.90
23755;DHT22;12057;52.042;6.830;2023-11-21T12:36:46;13.90;99.90
23755;DHT22;12057;52.042;6.830;2023-11-21T12:41:47;13.90;99.90
23755;DHT22;12057;52.042;6.830;2023-11-21T12:46:51;14.00;99.90
23755;DHT22;12057;52.042;6.830;2023-11-21T12:51:56;14.00;99.90
23755;DHT22;12057;52.042;6.830;2023-11-21T12:56:59;13.60;99.90
23755;DHT22;12057;52.042;6.830;2023-11-21T13:02:02;13.70;99.90
23755;DHT22;12057;52.042;6.830;2023-11-21T13:07:05;13.70;99.90
23755;DHT22;12057;52.042;6.830;2023-11-21T13:12:15;13.60;99.90
23755;DHT22;12057;52.042;6.830;2023-11-21T13:17:18;13.50;99.90
23755;DHT22;12057;52.042;6.830;2023-11-21T13:22:19;12.80;99.90
23755;DHT22;12057;52.042;6.830;2023-11-21T13:27:21;13.00;99.90
23755;DHT22;12057;52.042;6.830;2023-11-21T13:32:22;13.40;99.90
23755;DHT22;12057;52.042;6.830;2023-11-21T13:37:22;13.60;99.90
23755;DHT22;12057;52.042;6.830;2023-11-21T13:42:25;13.50;99.90
23755;DHT22;12057;52.042;6.830;2023-11-21T13:47:28;13.40;99.90
23755;DHT22;12057;52.042;6.830;2023-11-21T13:52:31;13.50;99.90
23755;DHT22;12057;52.042;6.830;2023-11-21T13:57:34;13.30;99.90
23755;DHT22;12057;52.042;6.830;2023-11-21T14:02:35;13.20;99.90
23755;DHT22;12057;52.042;6.830;2023-11-21T14:07:40;13.20;99.90
23755;DHT22;12057;52.042;6.830;2023-11-21T14:12:48;12.80;99.90
23755;DHT22;12057;52.042;6.830;2023-11-21T14:17:48;12.90;99.90
23755;DHT22;12057;52.042;6.830;2023-11-21T14:22:50;12.60;99.90
23755;DHT22;12057;52.042;6.830;2023-11-21T14:27:51;12.80;99.90
23755;DHT22;12057;52.042;6.830;2023-11-21T14:32:52;12.80;99.90
23755;DHT22;12057;52.042;6.830;2023-11-21T14:37:53;12.50;99.90
23755;DHT22;12057;52.042;6.830;2023-11-21T14:42:54;12.50;99.90
23755;DHT22;12057;52.042;6.830;2023-11-21T14:47:57;12.40;99.90
23755;DHT22;12057;52.042;6.830;2023-11-21T14:53:11;12.20;99.90
23755;DHT22;12057;52.042;6.830;2023-11-21T14:58:13;12.20;99.90
23755;DHT22;12057;52.042;6.830;2023-11-21T15:03:19;12.00;99.90
23755;DHT22;12057;52.042;6.830;2023-11-21T15:08:31;12.00;99.90
23755;DHT22;12057;52.042;6.830;2023-11-21T15:13:32;12.00;99.90
23755;DHT22;12057;52.042;6.830;2023-11-21T15:18:38;12.20;99.90
23755;DHT22;12057;52.042;6.830;2023-11-21T15:23:39;12.30;99.90
23755;DHT22;12057;52.042;6.830;2023-11-21T15:28:41;12.10;99.90
23755;DHT22;12057;52.042;6.830;2023-11-21T15:33:45;12.00;99.90
23755;DHT22;12057;52.042;6.830;2023-11-21T15:38:46;11.90;99.90
23755;DHT22;12057;52.042;6.830;2023-11-21T15:43:47;11.90;99.90
23755;DHT22;12057;52.042;6.830;2023-11-21T15:48:52;11.90;99.90
23755;DHT22;12057;52.042;6.830;2023-11-21T15:53:54;11.50;99.90
23755;DHT22;12057;52.042;6.830;2023-11-21T15:58:55;11.60;99.90
23755;DHT22;12057;52.042;6.830;2023-11-21T16:03:57;11.50;99.90
23755;DHT22;12057;52.042;6.830;2023-11-21T16:09:00;11.90;99.90
23755;DHT22;12057;52.042;6.830;2023-11-21T16:14:05;11.80;99.90
23755;DHT22;12057;52.042;6.830;2023-11-21T16:19:08;11.80;99.90
23755;DHT22;12057;52.042;6.830;2023-11-21T16:24:09;11.80;99.90
23755;DHT22;12057;52.042;6.830;2023-11-21T16:29:10;11.90;99.90
23755;DHT22;12057;52.042;6.830;2023-11-21T16:34:19;11.70;99.90
23755;DHT22;12057;52.042;6.830;2023-11-21T16:39:20;11.80;99.90
23755;DHT22;12057;52.042;6.830;2023-11-21T16:44:22;11.70;99.90
23755;DHT22;12057;52.042;6.830;2023-11-21T16:49:26;11.70;99.90
23755;DHT22;12057;52.042;6.830;2023-11-21T16:54:29;11.60;99.90
23755;DHT22;12057;52.042;6.830;2023-11-21T16:59:30;11.70;99.90
23755;DHT22;12057;52.042;6.830;2023-11-21T17:04:31;11.90;99.90
23755;DHT22;12057;52.042;6.830;2023-11-21T17:09:35;11.70;99.90
23755;DHT22;12057;52.042;6.830;2023-11-21T17:14:35;11.50;99.90
23755;DHT22;12057;52.042;6.830;2023-11-21T17:19:36;11.20;99.90
23755;DHT22;12057;52.042;6.830;2023-11-21T17:24:38;11.10;99.90
23755;DHT22;12057;52.042;6.830;2023-11-21T17:29:39;11.40;99.90
23755;DHT22;12057;52.042;6.830;2023-11-21T17:34:40;11.40;99.90
23755;DHT22;12057;52.042;6.830;2023-11-21T17:39:41;11.60;99.90
23755;DHT22;12057;52.042;6.830;2023-11-21T17:44:42;11.40;99.90
23755;DHT22;12057;52.042;6.830;2023-11-21T17:49:43;11.40;99.90
23755;DHT22;12057;52.042;6.830;2023-11-21T17:54:43;11.20;99.90
23755;DHT22;12057;52.042;6.830;2023-11-21T17:59:47;11.30;99.90
23755;DHT22;12057;52.042;6.830;2023-11-21T18:04:51;11.30;99.90
23755;DHT22;12057;52.042;6.830;2023-11-21T18:09:51;11.10;99.90
23755;DHT22;12057;52.042;6.830;2023-11-21T18:14:52;11.10;99.90
23755;DHT22;12057;52.042;6.830;2023-11-21T18:19:53;11.00;99.90
23755;DHT22;12057;52.042;6.830;2023-11-21T18:24:57;11.00;99.90
23755;DHT22;12057;52.042;6.830;2023-11-21T18:29:58;11.20;99.90
23755;DHT22;12057;52.042;6.830;2023-11-21T18:34:59;11.20;99.90
23755;DHT22;12057;52.042;6.830;2023-11-21T18:39:59;11.00;99.90
23755;DHT22;12057;52.042;6.830;2023-11-21T18:45:00;11.20;99.90
23755;DHT22;12057;52.042;6.830;2023-11-21T18:50:01;11.10;99.90
23755;DHT22;12057;52.042;6.830;2023-11-21T18:55:02;10.90;99.90
23755;DHT22;12057;52.042;6.830;2023-11-21T19:00:05;10.70;99.90
23755;DHT22;12057;52.042;6.830;2023-11-21T19:05:09;10.80;99.90
23755;DHT22;12057;52.042;6.830;2023-11-21T19:10:10;10.50;99.90
23755;DHT22;12057;52.042;6.830;2023-11-21T19:15:10;10.60;99.90
23755;DHT22;12057;52.042;6.830;2023-11-21T19:20:14;10.50;99.90
23755;DHT22;12057;52.042;6.830;2023-11-21T19:25:15;10.50;99.90
23755;DHT22;12057;52.042;6.830;2023-11-21T19:30:16;10.30;99.90
23755;DHT22;12057;52.042;6.830;2023-11-21T19:35:17;10.10;99.90
23755;DHT22;12057;52.042;6.830;2023-11-21T19:40:19;10.00;99.90
23755;DHT22;12057;52.042;6.830;2023-11-21T19:45:23;9.90;99.90
23755;DHT22;12057;52.042;6.830;2023-11-21T19:50:26;10.00;99.90
23755;DHT22;12057;52.042;6.830;2023-11-21T19:55:27;10.00;99.90
23755;DHT22;12057;52.042;6.830;2023-11-21T20:00:28;9.90;99.90
23755;DHT22;12057;52.042;6.830;2023-11-21T20:05:29;10.00;99.90
23755;DHT22;12057;52.042;6.830;2023-11-21T20:10:30;10.00;99.90
23755;DHT22;12057;52.042;6.830;2023-11-21T20:15:35;9.90;99.90
23755;DHT22;12057;52.042;6.830;2023-11-21T20:20:36;9.90;99.90
23755;DHT22;12057;52.042;6.830;2023-11-21T20:25:37;9.90;99.90
23755;DHT22;12057;52.042;6.830;2023-11-21T20:30:39;9.70;99.90
23755;DHT22;12057;52.042;6.830;2023-11-21T20:35:40;9.50;99.90
23755;DHT22;12057;52.042;6.830;2023-11-21T20:40:41;9.60;99.90
23755;DHT22;12057;52.042;6.830;2023-11-21T20:45:42;9.60;99.90
23755;DHT22;12057;52.042;6.830;2023-11-21T20:50:43;9.60;99.90
23755;DHT22;12057;52.042;6.830;2023-11-21T20:55:43;9.50;99.90
23755;DHT22;12057;52.042;6.830;2023-11-21T21:00:49;9.50;99.90
23755;DHT22;12057;52.042;6.830;2023-11-21T21:05:50;9.60;99.90
23755;DHT22;12057;52.042;6.830;2023-11-21T21:10:51;9.40;99.90
23755;DHT22;12057;52.042;6.830;2023-11-21T21:15:53;9.30;99.90
23755;DHT22;12057;52.042;6.830;2023-11-21T21:20:54;9.40;99.90
23755;DHT22;12057;52.042;6.830;2023-11-21T21:25:55;9.20;99.90
23755;DHT22;12057;52.042;6.830;2023-11-21T21:30:57;9.10;99.90
23755;DHT22;12057;52.042;6.830;2023-11-21T21:35:58;9.10;99.90
23755;DHT22;12057;52.042;6.830;2023-11-21T21:40:59;9.00;99.90
23755;DHT22;12057;52.042;6.830;2023-11-21T21:46:00;9.00;99.90
23755;DHT22;12057;52.042;6.830;2023-11-21T21:51:01;8.80;99.90
23755;DHT22;12057;52.042;6.830;2023-11-21T21:56:02;8.90;99.90
23755;DHT22;12057;52.042;6.830;2023-11-21T22:01:03;8.90;99.90
23755;DHT22;12057;52.042;6.830;2023-11-21T22:06:04;8.80;99.90
23755;DHT22;12057;52.042;6.830;2023-11-21T22:11:05;8.90;99.90
23755;DHT22;12057;52.042;6.830;2023-11-21T22:16:07;8.80;99.90
23755;DHT22;12057;52.042;6.830;2023-11-21T22:21:13;8.80;99.90
23755;DHT22;12057;52.042;6.830;2023-11-21T22:26:15;8.80;99.90
23755;DHT22;12057;52.042;6.830;2023-11-21T22:31:16;8.80;99.90
23755;DHT22;12057;52.042;6.830;2023-11-21T22:36:17;8.80;99.90
23755;DHT22;12057;52.042;6.830;2023-11-21T22:41:25;8.70;99.90
23755;DHT22;12057;52.042;6.830;2023-11-21T22:46:26;8.70;99.90
23755;DHT22;12057;52.042;6.830;2023-11-21T22:51:26;8.60;99.90
23755;DHT22;12057;52.042;6.830;2023-11-21T22:56:27;8.50;99.90
23755;DHT22;12057;52.042;6.830;2023-11-21T23:01:28;8.40;99.90
23755;DHT22;12057;52.042;6.830;2023-11-21T23:06:29;8.20;99.90
23755;DHT22;12057;52.042;6.830;2023-11-21T23:11:30;8.10;99.90
23755;DHT22;12057;52.042;6.830;2023-11-21T23:16:30;8.00;99.90
23755;DHT22;12057;52.042;6.830;2023-11-21T23:21:31;8.00;99.90
23755;DHT22;12057;52.042;6.830;2023-11-21T23:26:35;8.00;99.90
23755;DHT22;12057;52.042;6.830;2023-11-21T23:31:36;7.90;99.90
23755;DHT22;12057;52.042;6.830;2023-11-21T23:36:40;7.80;99.90
23755;DHT22;12057;52.042;6.830;2023-11-21T23:41:42;7.80;99.90
23755;DHT22;12057;52.042;6.830;2023-11-21T23:46:42;7.90;99.90
23755;DHT22;12057;52.042;6.830;2023-11-21T23:51:43;7.90;99.90
23755;DHT22;12057;52.042;6.830;2023-11-21T23:56:44;7.80;99.90
